sensor_id;sensor_type;location;lat;lon;timestamp;temperature;humidity
26623;DHT22;14254;50.968;5.366;2023-05-18T00:01:40;8.60;99.90
26623;DHT22;14254;50.968;5.366;2023-05-18T00:04:06;8.60;99.90
26623;DHT22;14254;50.968;5.366;2023-05-18T00:06:32;8.60;99.90
26623;DHT22;14254;50.968;5.366;2023-05-18T00:08:58;8.60;99.90
26623;DHT22;14254;50.968;5.366;2023-05-18T00:11:24;8.50;99.90
26623;DHT22;14254;50.968;5.366;2023-05-18T00:13:49;8.40;99.90
26623;DHT22;14254;50.968;5.366;2023-05-18T00:16:15;8.30;99.90
26623;DHT22;14254;50.968;5.366;2023-05-18T00:18:41;8.40;99.90
26623;DHT22;14254;50.968;5.366;2023-05-18T00:21:06;8.50;99.90
26623;DHT22;14254;50.968;5.366;2023-05-18T00:23:33;8.50;99.90
26623;DHT22;14254;50.968;5.366;2023-05-18T00:26:00;8.60;99.90
26623;DHT22;14254;50.968;5.366;2023-05-18T00:28:26;8.50;99.90
26623;DHT22;14254;50.968;5.366;2023-05-18T00:30:55;8.40;99.90
26623;DHT22;14254;50.968;5.366;2023-05-18T00:33:21;8.40;99.90
26623;DHT22;14254;50.968;5.366;2023-05-18T00:35:47;8.40;99.90
26623;DHT22;14254;50.968;5.366;2023-05-18T00:38:13;8.30;99.90
26623;DHT22;14254;50.968;5.366;2023-05-18T00:40:42;8.30;99.90
26623;DHT22;14254;50.968;5.366;2023-05-18T00:43:08;8.20;99.90
26623;DHT22;14254;50.968;5.366;2023-05-18T00:45:34;8.10;99.90
26623;DHT22;14254;50.968;5.366;2023-05-18T00:48:00;8.00;99.90
26623;DHT22;14254;50.968;5.366;2023-05-18T00:50:26;8.00;99.90
26623;DHT22;14254;50.968;5.366;2023-05-18T00:52:52;8.10;99.90
26623;DHT22;14254;50.968;5.366;2023-05-18T00:55:18;7.90;99.90
26623;DHT22;14254;50.968;5.366;2023-05-18T00:57:44;7.90;99.90
26623;DHT22;14254;50.968;5.366;2023-05-18T01:00:13;7.80;99.90
26623;DHT22;14254;50.968;5.366;2023-05-18T01:02:40;7.80;99.90
26623;DHT22;14254;50.968;5.366;2023-05-18T01:05:08;7.70;99.90
26623;DHT22;14254;50.968;5.366;2023-05-18T01:07:38;7.70;99.90
26623;DHT22;14254;50.968;5.366;2023-05-18T01:10:07;7.70;99.90
26623;DHT22;14254;50.968;5.366;2023-05-18T01:12:58;7.60;99.90
26623;DHT22;14254;50.968;5.366;2023-05-18T01:15:30;7.50;99.90
26623;DHT22;14254;50.968;5.366;2023-05-18T01:18:01;7.40;99.90
26623;DHT22;14254;50.968;5.366;2023-05-18T01:20:48;7.30;99.90
26623;DHT22;14254;50.968;5.366;2023-05-18T01:25:59;7.20;99.90
26623;DHT22;14254;50.968;5.366;2023-05-18T01:28:29;7.30;99.90
26623;DHT22;14254;50.968;5.366;2023-05-18T01:30:57;7.30;99.90
26623;DHT22;14254;50.968;5.366;2023-05-18T01:33:23;7.20;99.90
26623;DHT22;14254;50.968;5.366;2023-05-18T01:35:50;7.20;99.90
26623;DHT22;14254;50.968;5.366;2023-05-18T01:38:21;7.20;99.90
26623;DHT22;14254;50.968;5.366;2023-05-18T01:41:05;7.20;99.90
26623;DHT22;14254;50.968;5.366;2023-05-18T01:43:35;7.20;99.90
26623;DHT22;14254;50.968;5.366;2023-05-18T01:46:15;7.20;99.90
26623;DHT22;14254;50.968;5.366;2023-05-18T01:48:47;7.20;99.90
26623;DHT22;14254;50.968;5.366;2023-05-18T01:51:16;7.10;99.90
26623;DHT22;14254;50.968;5.366;2023-05-18T01:53:54;7.10;99.90
26623;DHT22;14254;50.968;5.366;2023-05-18T01:56:22;7.10;99.90
26623;DHT22;14254;50.968;5.366;2023-05-18T01:58:49;7.10;99.90
26623;DHT22;14254;50.968;5.366;2023-05-18T02:01:15;7.10;99.90
26623;DHT22;14254;50.968;5.366;2023-05-18T02:03:44;7.10;99.90
26623;DHT22;14254;50.968;5.366;2023-05-18T02:06:10;7.00;99.90
26623;DHT22;14254;50.968;5.366;2023-05-18T02:08:36;7.10;99.90
26623;DHT22;14254;50.968;5.366;2023-05-18T02:11:02;7.10;99.90
26623;DHT22;14254;50.968;5.366;2023-05-18T02:13:28;7.00;99.90
26623;DHT22;14254;50.968;5.366;2023-05-18T02:15:53;7.10;99.90
26623;DHT22;14254;50.968;5.366;2023-05-18T02:18:19;7.00;99.90
26623;DHT22;14254;50.968;5.366;2023-05-18T02:20:46;7.10;99.90
26623;DHT22;14254;50.968;5.366;2023-05-18T02:23:13;6.90;99.90
26623;DHT22;14254;50.968;5.366;2023-05-18T02:25:39;7.00;99.90
26623;DHT22;14254;50.968;5.366;2023-05-18T02:28:05;7.00;99.90
26623;DHT22;14254;50.968;5.366;2023-05-18T02:30:31;7.00;99.90
26623;DHT22;14254;50.968;5.366;2023-05-18T02:32:58;7.00;99.90
26623;DHT22;14254;50.968;5.366;2023-05-18T02:35:23;7.00;99.90
26623;DHT22;14254;50.968;5.366;2023-05-18T02:37:49;6.90;99.90
26623;DHT22;14254;50.968;5.366;2023-05-18T02:40:15;7.00;99.90
26623;DHT22;14254;50.968;5.366;2023-05-18T02:42:41;6.90;99.90
26623;DHT22;14254;50.968;5.366;2023-05-18T02:45:07;6.80;99.90
26623;DHT22;14254;50.968;5.366;2023-05-18T02:47:33;6.80;99.90
26623;DHT22;14254;50.968;5.366;2023-05-18T02:49:59;6.70;99.90
26623;DHT22;14254;50.968;5.366;2023-05-18T02:52:25;6.70;99.90
26623;DHT22;14254;50.968;5.366;2023-05-18T02:54:51;6.70;99.90
26623;DHT22;14254;50.968;5.366;2023-05-18T02:57:19;6.70;99.90
26623;DHT22;14254;50.968;5.366;2023-05-18T02:59:46;6.70;99.90
26623;DHT22;14254;50.968;5.366;2023-05-18T03:02:11;6.60;99.90
26623;DHT22;14254;50.968;5.366;2023-05-18T03:04:41;6.50;99.90
26623;DHT22;14254;50.968;5.366;2023-05-18T03:07:07;6.50;99.90
26623;DHT22;14254;50.968;5.366;2023-05-18T03:09:33;6.50;99.90
26623;DHT22;14254;50.968;5.366;2023-05-18T03:11:58;6.50;99.90
26623;DHT22;14254;50.968;5.366;2023-05-18T03:14:24;6.50;99.90
26623;DHT22;14254;50.968;5.366;2023-05-18T03:16:50;6.50;99.90
26623;DHT22;14254;50.968;5.366;2023-05-18T03:19:19;6.50;99.90
26623;DHT22;14254;50.968;5.366;2023-05-18T03:21:45;6.50;99.90
26623;DHT22;14254;50.968;5.366;2023-05-18T03:24:10;6.50;99.90
26623;DHT22;14254;50.968;5.366;2023-05-18T03:26:39;6.60;99.90
26623;DHT22;14254;50.968;5.366;2023-05-18T03:29:08;6.60;99.90
26623;DHT22;14254;50.968;5.366;2023-05-18T03:31:34;6.60;99.90
26623;DHT22;14254;50.968;5.366;2023-05-18T03:34:00;6.50;99.90
26623;DHT22;14254;50.968;5.366;2023-05-18T03:36:26;6.50;99.90
26623;DHT22;14254;50.968;5.366;2023-05-18T03:38:55;6.60;99.90
26623;DHT22;14254;50.968;5.366;2023-05-18T03:41:20;6.60;99.90
26623;DHT22;14254;50.968;5.366;2023-05-18T03:43:46;6.70;99.90
26623;DHT22;14254;50.968;5.366;2023-05-18T03:46:12;6.60;99.90
26623;DHT22;14254;50.968;5.366;2023-05-18T03:48:37;6.60;99.90
26623;DHT22;14254;50.968;5.366;2023-05-18T03:51:04;6.60;99.90
26623;DHT22;14254;50.968;5.366;2023-05-18T03:53:30;6.40;99.90
26623;DHT22;14254;50.968;5.366;2023-05-18T03:55:55;6.50;99.90
26623;DHT22;14254;50.968;5.366;2023-05-18T03:58:21;6.60;99.90
26623;DHT22;14254;50.968;5.366;2023-05-18T04:00:47;6.60;99.90
26623;DHT22;14254;50.968;5.366;2023-05-18T04:03:13;6.60;99.90
26623;DHT22;14254;50.968;5.366;2023-05-18T04:05:42;6.70;99.90
26623;DHT22;14254;50.968;5.366;2023-05-18T04:08:08;6.70;99.90
26623;DHT22;14254;50.968;5.366;2023-05-18T04:10:40;6.70;99.90
26623;DHT22;14254;50.968;5.366;2023-05-18T04:13:06;6.70;99.90
26623;DHT22;14254;50.968;5.366;2023-05-18T04:15:31;6.70;99.90
26623;DHT22;14254;50.968;5.366;2023-05-18T04:17:58;6.80;99.90
26623;DHT22;14254;50.968;5.366;2023-05-18T04:20:24;6.80;99.90
26623;DHT22;14254;50.968;5.366;2023-05-18T04:22:52;6.80;99.90
26623;DHT22;14254;50.968;5.366;2023-05-18T04:25:18;6.80;99.90
26623;DHT22;14254;50.968;5.366;2023-05-18T04:27:44;6.90;99.90
26623;DHT22;14254;50.968;5.366;2023-05-18T04:30:11;6.90;99.90
26623;DHT22;14254;50.968;5.366;2023-05-18T04:32:37;7.00;99.90
26623;DHT22;14254;50.968;5.366;2023-05-18T04:35:05;7.00;99.90
26623;DHT22;14254;50.968;5.366;2023-05-18T04:37:32;7.00;99.90
26623;DHT22;14254;50.968;5.366;2023-05-18T04:39:58;7.00;99.90
26623;DHT22;14254;50.968;5.366;2023-05-18T04:42:27;7.10;99.90
26623;DHT22;14254;50.968;5.366;2023-05-18T04:44:53;7.10;99.90
26623;DHT22;14254;50.968;5.366;2023-05-18T04:47:19;7.20;99.90
26623;DHT22;14254;50.968;5.366;2023-05-18T04:49:51;7.20;99.90
26623;DHT22;14254;50.968;5.366;2023-05-18T04:52:17;7.20;99.90
26623;DHT22;14254;50.968;5.366;2023-05-18T04:54:44;7.30;99.90
26623;DHT22;14254;50.968;5.366;2023-05-18T04:57:09;7.30;99.90
26623;DHT22;14254;50.968;5.366;2023-05-18T04:59:36;7.40;99.90
26623;DHT22;14254;50.968;5.366;2023-05-18T05:02:02;7.40;99.90
26623;DHT22;14254;50.968;5.366;2023-05-18T05:04:28;7.50;99.90
26623;DHT22;14254;50.968;5.366;2023-05-18T05:06:54;7.50;99.90
26623;DHT22;14254;50.968;5.366;2023-05-18T05:09:20;7.50;99.90
26623;DHT22;14254;50.968;5.366;2023-05-18T05:11:46;7.40;99.90
26623;DHT22;14254;50.968;5.366;2023-05-18T05:14:12;7.40;99.90
26623;DHT22;14254;50.968;5.366;2023-05-18T05:16:38;7.50;99.90
26623;DHT22;14254;50.968;5.366;2023-05-18T05:19:03;7.60;99.90
26623;DHT22;14254;50.968;5.366;2023-05-18T05:21:29;7.60;99.90
26623;DHT22;14254;50.968;5.366;2023-05-18T05:23:56;7.70;99.90
26623;DHT22;14254;50.968;5.366;2023-05-18T05:26:21;7.80;99.90
26623;DHT22;14254;50.968;5.366;2023-05-18T05:28:47;7.80;99.90
26623;DHT22;14254;50.968;5.366;2023-05-18T05:31:13;7.90;99.90
26623;DHT22;14254;50.968;5.366;2023-05-18T05:33:38;8.00;99.90
26623;DHT22;14254;50.968;5.366;2023-05-18T05:36:04;8.10;99.90
26623;DHT22;14254;50.968;5.366;2023-05-18T05:38:31;8.20;99.90
26623;DHT22;14254;50.968;5.366;2023-05-18T05:40:57;8.20;99.90
26623;DHT22;14254;50.968;5.366;2023-05-18T05:43:23;8.20;99.90
26623;DHT22;14254;50.968;5.366;2023-05-18T05:45:48;8.40;99.90
26623;DHT22;14254;50.968;5.366;2023-05-18T05:48:14;8.60;99.90
26623;DHT22;14254;50.968;5.366;2023-05-18T05:50:40;8.60;99.90
26623;DHT22;14254;50.968;5.366;2023-05-18T05:53:05;8.60;99.90
26623;DHT22;14254;50.968;5.366;2023-05-18T05:55:31;8.70;99.90
26623;DHT22;14254;50.968;5.366;2023-05-18T05:57:57;8.70;99.90
26623;DHT22;14254;50.968;5.366;2023-05-18T06:00:22;8.80;99.90
26623;DHT22;14254;50.968;5.366;2023-05-18T06:02:49;8.90;99.90
26623;DHT22;14254;50.968;5.366;2023-05-18T06:05:15;9.10;99.90
26623;DHT22;14254;50.968;5.366;2023-05-18T06:07:40;9.10;99.90
26623;DHT22;14254;50.968;5.366;2023-05-18T06:10:06;9.30;99.90
26623;DHT22;14254;50.968;5.366;2023-05-18T06:12:32;9.30;99.90
26623;DHT22;14254;50.968;5.366;2023-05-18T06:15:08;9.40;99.90
26623;DHT22;14254;50.968;5.366;2023-05-18T06:17:34;9.40;99.90
26623;DHT22;14254;50.968;5.366;2023-05-18T06:20:00;9.50;99.90
26623;DHT22;14254;50.968;5.366;2023-05-18T06:22:25;9.50;99.90
26623;DHT22;14254;50.968;5.366;2023-05-18T06:24:51;9.60;99.90
26623;DHT22;14254;50.968;5.366;2023-05-18T06:27:17;9.70;99.90
26623;DHT22;14254;50.968;5.366;2023-05-18T06:29:43;9.80;99.90
26623;DHT22;14254;50.968;5.366;2023-05-18T06:32:11;9.80;99.90
26623;DHT22;14254;50.968;5.366;2023-05-18T06:34:37;9.70;99.90
26623;DHT22;14254;50.968;5.366;2023-05-18T06:37:05;9.60;99.90
26623;DHT22;14254;50.968;5.366;2023-05-18T06:39:33;9.70;99.90
26623;DHT22;14254;50.968;5.366;2023-05-18T06:41:59;9.80;99.90
26623;DHT22;14254;50.968;5.366;2023-05-18T06:44:25;10.10;99.90
26623;DHT22;14254;50.968;5.366;2023-05-18T06:46:51;10.10;99.90
26623;DHT22;14254;50.968;5.366;2023-05-18T06:49:16;10.10;99.90
26623;DHT22;14254;50.968;5.366;2023-05-18T06:51:42;10.30;99.90
26623;DHT22;14254;50.968;5.366;2023-05-18T06:54:08;10.50;99.90
26623;DHT22;14254;50.968;5.366;2023-05-18T06:56:34;10.70;99.90
26623;DHT22;14254;50.968;5.366;2023-05-18T06:58:59;10.60;99.90
26623;DHT22;14254;50.968;5.366;2023-05-18T07:01:25;10.40;99.90
26623;DHT22;14254;50.968;5.366;2023-05-18T07:03:50;10.50;99.90
26623;DHT22;14254;50.968;5.366;2023-05-18T07:06:16;10.60;99.90
26623;DHT22;14254;50.968;5.366;2023-05-18T07:08:43;10.80;99.90
26623;DHT22;14254;50.968;5.366;2023-05-18T07:11:09;10.90;99.90
26623;DHT22;14254;50.968;5.366;2023-05-18T07:13:34;11.10;99.90
26623;DHT22;14254;50.968;5.366;2023-05-18T07:16:00;11.20;99.90
26623;DHT22;14254;50.968;5.366;2023-05-18T07:18:26;11.40;99.90
26623;DHT22;14254;50.968;5.366;2023-05-18T07:20:51;11.50;99.90
26623;DHT22;14254;50.968;5.366;2023-05-18T07:23:17;11.70;99.90
26623;DHT22;14254;50.968;5.366;2023-05-18T07:25:43;11.70;99.90
26623;DHT22;14254;50.968;5.366;2023-05-18T07:28:09;11.80;99.90
26623;DHT22;14254;50.968;5.366;2023-05-18T07:30:34;11.80;99.90
26623;DHT22;14254;50.968;5.366;2023-05-18T07:33:00;12.10;99.90
26623;DHT22;14254;50.968;5.366;2023-05-18T07:35:26;12.30;99.90
26623;DHT22;14254;50.968;5.366;2023-05-18T07:37:52;12.70;99.90
26623;DHT22;14254;50.968;5.366;2023-05-18T07:40:19;13.00;99.90
26623;DHT22;14254;50.968;5.366;2023-05-18T07:42:44;13.20;99.90
26623;DHT22;14254;50.968;5.366;2023-05-18T07:45:10;13.30;99.90
26623;DHT22;14254;50.968;5.366;2023-05-18T07:47:37;13.20;99.90
26623;DHT22;14254;50.968;5.366;2023-05-18T07:50:02;13.20;99.90
26623;DHT22;14254;50.968;5.366;2023-05-18T07:52:28;13.20;99.90
26623;DHT22;14254;50.968;5.366;2023-05-18T07:54:55;13.00;99.90
26623;DHT22;14254;50.968;5.366;2023-05-18T07:57:24;13.20;99.90
26623;DHT22;14254;50.968;5.366;2023-05-18T07:59:50;13.50;99.90
26623;DHT22;14254;50.968;5.366;2023-05-18T08:02:16;13.50;99.90
26623;DHT22;14254;50.968;5.366;2023-05-18T08:04:44;13.70;99.90
26623;DHT22;14254;50.968;5.366;2023-05-18T08:07:10;13.70;99.90
26623;DHT22;14254;50.968;5.366;2023-05-18T08:09:37;13.80;99.90
26623;DHT22;14254;50.968;5.366;2023-05-18T08:12:03;13.80;99.90
26623;DHT22;14254;50.968;5.366;2023-05-18T08:14:29;13.70;99.90
26623;DHT22;14254;50.968;5.366;2023-05-18T08:16:55;13.80;99.90
26623;DHT22;14254;50.968;5.366;2023-05-18T08:19:21;13.90;99.90
26623;DHT22;14254;50.968;5.366;2023-05-18T08:21:47;13.70;99.90
26623;DHT22;14254;50.968;5.366;2023-05-18T08:24:12;13.60;99.90
26623;DHT22;14254;50.968;5.366;2023-05-18T08:26:38;13.60;99.90
26623;DHT22;14254;50.968;5.366;2023-05-18T08:29:04;13.80;99.90
26623;DHT22;14254;50.968;5.366;2023-05-18T08:31:38;13.80;99.90
26623;DHT22;14254;50.968;5.366;2023-05-18T08:34:05;13.70;99.90
26623;DHT22;14254;50.968;5.366;2023-05-18T08:36:32;13.40;99.90
26623;DHT22;14254;50.968;5.366;2023-05-18T08:38:58;13.30;99.90
26623;DHT22;14254;50.968;5.366;2023-05-18T08:42:00;13.30;99.90
26623;DHT22;14254;50.968;5.366;2023-05-18T08:44:50;13.30;99.90
26623;DHT22;14254;50.968;5.366;2023-05-18T08:47:22;13.30;99.90
26623;DHT22;14254;50.968;5.366;2023-05-18T08:49:51;13.30;99.90
26623;DHT22;14254;50.968;5.366;2023-05-18T08:52:21;13.50;99.90
26623;DHT22;14254;50.968;5.366;2023-05-18T08:54:50;13.70;99.90
26623;DHT22;14254;50.968;5.366;2023-05-18T08:57:19;13.80;99.90
26623;DHT22;14254;50.968;5.366;2023-05-18T08:59:48;14.00;99.90
26623;DHT22;14254;50.968;5.366;2023-05-18T09:02:17;14.20;99.90
26623;DHT22;14254;50.968;5.366;2023-05-18T09:04:43;14.10;99.90
26623;DHT22;14254;50.968;5.366;2023-05-18T09:07:09;14.10;99.90
26623;DHT22;14254;50.968;5.366;2023-05-18T09:09:35;14.20;99.90
26623;DHT22;14254;50.968;5.366;2023-05-18T09:12:03;14.20;99.90
26623;DHT22;14254;50.968;5.366;2023-05-18T09:14:31;13.90;99.90
26623;DHT22;14254;50.968;5.366;2023-05-18T09:16:57;14.10;99.90
26623;DHT22;14254;50.968;5.366;2023-05-18T09:19:22;14.10;99.90
26623;DHT22;14254;50.968;5.366;2023-05-18T09:21:49;14.30;99.90
26623;DHT22;14254;50.968;5.366;2023-05-18T09:24:15;14.30;99.90
26623;DHT22;14254;50.968;5.366;2023-05-18T09:26:40;14.40;99.90
26623;DHT22;14254;50.968;5.366;2023-05-18T09:29:17;14.60;99.90
26623;DHT22;14254;50.968;5.366;2023-05-18T09:31:44;14.80;99.90
26623;DHT22;14254;50.968;5.366;2023-05-18T09:34:11;14.80;99.90
26623;DHT22;14254;50.968;5.366;2023-05-18T09:36:37;14.70;99.90
26623;DHT22;14254;50.968;5.366;2023-05-18T09:39:09;14.80;99.90
26623;DHT22;14254;50.968;5.366;2023-05-18T09:41:39;15.00;99.90
26623;DHT22;14254;50.968;5.366;2023-05-18T09:44:06;14.60;99.90
26623;DHT22;14254;50.968;5.366;2023-05-18T09:46:40;14.70;99.90
26623;DHT22;14254;50.968;5.366;2023-05-18T09:49:06;14.60;99.90
26623;DHT22;14254;50.968;5.366;2023-05-18T09:51:38;14.80;99.90
26623;DHT22;14254;50.968;5.366;2023-05-18T09:54:06;15.00;99.90
26623;DHT22;14254;50.968;5.366;2023-05-18T09:56:34;14.90;99.90
26623;DHT22;14254;50.968;5.366;2023-05-18T09:59:10;14.70;99.90
26623;DHT22;14254;50.968;5.366;2023-05-18T10:02:00;14.60;99.90
26623;DHT22;14254;50.968;5.366;2023-05-18T10:04:37;14.60;99.90
26623;DHT22;14254;50.968;5.366;2023-05-18T10:07:09;14.80;99.90
26623;DHT22;14254;50.968;5.366;2023-05-18T10:09:36;14.80;99.90
26623;DHT22;14254;50.968;5.366;2023-05-18T10:12:02;14.80;99.90
26623;DHT22;14254;50.968;5.366;2023-05-18T10:14:31;15.00;99.90
26623;DHT22;14254;50.968;5.366;2023-05-18T10:17:03;15.10;99.90
26623;DHT22;14254;50.968;5.366;2023-05-18T10:19:33;14.80;99.90
26623;DHT22;14254;50.968;5.366;2023-05-18T10:22:03;14.90;99.90
26623;DHT22;14254;50.968;5.366;2023-05-18T10:24:38;15.30;99.90
26623;DHT22;14254;50.968;5.366;2023-05-18T10:27:07;15.10;99.90
26623;DHT22;14254;50.968;5.366;2023-05-18T10:29:35;15.10;99.90
26623;DHT22;14254;50.968;5.366;2023-05-18T10:32:03;15.50;99.90
26623;DHT22;14254;50.968;5.366;2023-05-18T10:34:31;15.90;99.90
26623;DHT22;14254;50.968;5.366;2023-05-18T10:36:59;16.30;99.90
26623;DHT22;14254;50.968;5.366;2023-05-18T10:39:26;16.40;99.90
26623;DHT22;14254;50.968;5.366;2023-05-18T10:41:54;16.30;99.90
26623;DHT22;14254;50.968;5.366;2023-05-18T10:44:21;16.30;99.90
26623;DHT22;14254;50.968;5.366;2023-05-18T10:46:49;16.50;99.90
26623;DHT22;14254;50.968;5.366;2023-05-18T10:49:16;16.40;99.90
26623;DHT22;14254;50.968;5.366;2023-05-18T10:51:44;16.30;99.90
26623;DHT22;14254;50.968;5.366;2023-05-18T10:54:12;16.50;99.90
26623;DHT22;14254;50.968;5.366;2023-05-18T10:56:47;16.40;99.90
26623;DHT22;14254;50.968;5.366;2023-05-18T10:59:15;16.00;99.90
26623;DHT22;14254;50.968;5.366;2023-05-18T11:01:43;16.00;99.90
26623;DHT22;14254;50.968;5.366;2023-05-18T11:04:10;16.10;99.90
26623;DHT22;14254;50.968;5.366;2023-05-18T11:06:36;16.30;99.90
26623;DHT22;14254;50.968;5.366;2023-05-18T11:09:03;16.40;99.90
26623;DHT22;14254;50.968;5.366;2023-05-18T11:11:29;16.20;99.90
26623;DHT22;14254;50.968;5.366;2023-05-18T11:14:02;16.20;99.90
26623;DHT22;14254;50.968;5.366;2023-05-18T11:16:32;16.30;99.90
26623;DHT22;14254;50.968;5.366;2023-05-18T11:19:05;16.10;99.90
26623;DHT22;14254;50.968;5.366;2023-05-18T11:27:27;16.90;99.90
26623;DHT22;14254;50.968;5.366;2023-05-18T11:29:44;17.10;99.90
26623;DHT22;14254;50.968;5.366;2023-05-18T11:32:24;17.10;99.90
26623;DHT22;14254;50.968;5.366;2023-05-18T11:34:52;18.40;99.90
26623;DHT22;14254;50.968;5.366;2023-05-18T11:40:13;22.90;93.70
26623;DHT22;14254;50.968;5.366;2023-05-18T11:42:57;23.30;89.10
26623;DHT22;14254;50.968;5.366;2023-05-18T11:45:24;22.80;86.80
26623;DHT22;14254;50.968;5.366;2023-05-18T11:47:56;22.80;87.80
26623;DHT22;14254;50.968;5.366;2023-05-18T11:50:26;23.20;89.90
26623;DHT22;14254;50.968;5.366;2023-05-18T11:52:51;24.50;85.90
26623;DHT22;14254;50.968;5.366;2023-05-18T11:55:19;23.90;80.70
26623;DHT22;14254;50.968;5.366;2023-05-18T11:57:48;23.10;81.90
26623;DHT22;14254;50.968;5.366;2023-05-18T12:00:16;22.20;84.10
26623;DHT22;14254;50.968;5.366;2023-05-18T12:02:45;21.40;85.90
26623;DHT22;14254;50.968;5.366;2023-05-18T12:05:12;20.90;86.60
26623;DHT22;14254;50.968;5.366;2023-05-18T12:07:38;20.80;87.70
26623;DHT22;14254;50.968;5.366;2023-05-18T12:10:13;21.40;86.30
26623;DHT22;14254;50.968;5.366;2023-05-18T12:12:42;22.80;84.60
26623;DHT22;14254;50.968;5.366;2023-05-18T12:15:09;25.10;78.60
26623;DHT22;14254;50.968;5.366;2023-05-18T12:17:46;27.40;71.80
26623;DHT22;14254;50.968;5.366;2023-05-18T12:20:20;25.60;74.70
26623;DHT22;14254;50.968;5.366;2023-05-18T12:22:48;23.80;76.50
26623;DHT22;14254;50.968;5.366;2023-05-18T12:25:18;22.30;77.50
26623;DHT22;14254;50.968;5.366;2023-05-18T12:27:45;22.30;81.90
26623;DHT22;14254;50.968;5.366;2023-05-18T12:32:47;23.90;75.60
26623;DHT22;14254;50.968;5.366;2023-05-18T12:35:13;23.80;76.20
26623;DHT22;14254;50.968;5.366;2023-05-18T12:37:42;22.10;77.70
26623;DHT22;14254;50.968;5.366;2023-05-18T12:40:10;21.80;79.00
26623;DHT22;14254;50.968;5.366;2023-05-18T12:42:35;21.90;81.10
26623;DHT22;14254;50.968;5.366;2023-05-18T12:45:01;22.40;79.20
26623;DHT22;14254;50.968;5.366;2023-05-18T12:47:31;22.50;79.30
26623;DHT22;14254;50.968;5.366;2023-05-18T12:50:00;23.20;78.70
26623;DHT22;14254;50.968;5.366;2023-05-18T12:52:27;23.10;76.50
26623;DHT22;14254;50.968;5.366;2023-05-18T12:54:54;22.60;78.50
26623;DHT22;14254;50.968;5.366;2023-05-18T12:57:24;21.60;77.70
26623;DHT22;14254;50.968;5.366;2023-05-18T12:59:53;21.60;81.30
26623;DHT22;14254;50.968;5.366;2023-05-18T13:02:30;22.30;76.20
26623;DHT22;14254;50.968;5.366;2023-05-18T13:05:10;23.60;77.30
26623;DHT22;14254;50.968;5.366;2023-05-18T13:07:38;22.90;76.10
26623;DHT22;14254;50.968;5.366;2023-05-18T13:10:10;22.40;78.90
26623;DHT22;14254;50.968;5.366;2023-05-18T13:12:47;22.10;77.60
26623;DHT22;14254;50.968;5.366;2023-05-18T13:15:15;20.70;81.50
26623;DHT22;14254;50.968;5.366;2023-05-18T13:17:57;20.80;84.40
26623;DHT22;14254;50.968;5.366;2023-05-18T13:20:34;20.20;84.00
26623;DHT22;14254;50.968;5.366;2023-05-18T13:23:07;19.90;82.50
26623;DHT22;14254;50.968;5.366;2023-05-18T13:25:32;20.30;82.50
26623;DHT22;14254;50.968;5.366;2023-05-18T13:27:58;20.10;85.60
26623;DHT22;14254;50.968;5.366;2023-05-18T13:30:24;20.60;85.30
26623;DHT22;14254;50.968;5.366;2023-05-18T13:32:50;20.20;82.60
26623;DHT22;14254;50.968;5.366;2023-05-18T13:35:20;19.30;85.90
26623;DHT22;14254;50.968;5.366;2023-05-18T13:37:47;19.60;85.10
26623;DHT22;14254;50.968;5.366;2023-05-18T13:40:16;20.10;84.60
26623;DHT22;14254;50.968;5.366;2023-05-18T13:42:42;20.90;80.70
26623;DHT22;14254;50.968;5.366;2023-05-18T13:45:09;20.90;84.80
26623;DHT22;14254;50.968;5.366;2023-05-18T13:47:36;20.90;81.40
26623;DHT22;14254;50.968;5.366;2023-05-18T13:50:02;21.60;81.50
26623;DHT22;14254;50.968;5.366;2023-05-18T13:52:27;21.70;80.80
26623;DHT22;14254;50.968;5.366;2023-05-18T13:54:53;21.40;80.80
26623;DHT22;14254;50.968;5.366;2023-05-18T13:57:19;22.10;78.40
26623;DHT22;14254;50.968;5.366;2023-05-18T13:59:45;21.80;79.20
26623;DHT22;14254;50.968;5.366;2023-05-18T14:02:11;21.90;80.60
26623;DHT22;14254;50.968;5.366;2023-05-18T14:04:37;21.70;80.00
26623;DHT22;14254;50.968;5.366;2023-05-18T14:07:03;21.10;81.40
26623;DHT22;14254;50.968;5.366;2023-05-18T14:09:28;21.40;80.90
26623;DHT22;14254;50.968;5.366;2023-05-18T14:11:54;21.70;78.80
26623;DHT22;14254;50.968;5.366;2023-05-18T14:14:20;21.60;77.80
26623;DHT22;14254;50.968;5.366;2023-05-18T14:16:45;21.90;78.00
26623;DHT22;14254;50.968;5.366;2023-05-18T14:19:11;22.60;75.80
26623;DHT22;14254;50.968;5.366;2023-05-18T14:21:37;23.30;77.90
26623;DHT22;14254;50.968;5.366;2023-05-18T14:24:03;24.10;74.30
26623;DHT22;14254;50.968;5.366;2023-05-18T14:26:32;24.80;72.80
26623;DHT22;14254;50.968;5.366;2023-05-18T14:28:58;23.80;71.50
26623;DHT22;14254;50.968;5.366;2023-05-18T14:31:24;23.70;73.30
26623;DHT22;14254;50.968;5.366;2023-05-18T14:33:49;24.70;73.40
26623;DHT22;14254;50.968;5.366;2023-05-18T14:36:15;24.10;72.20
26623;DHT22;14254;50.968;5.366;2023-05-18T14:38:41;23.70;72.90
26623;DHT22;14254;50.968;5.366;2023-05-18T14:41:08;24.20;74.30
26623;DHT22;14254;50.968;5.366;2023-05-18T14:43:34;24.50;71.30
26623;DHT22;14254;50.968;5.366;2023-05-18T14:46:00;25.60;68.90
26623;DHT22;14254;50.968;5.366;2023-05-18T14:48:25;25.60;70.60
26623;DHT22;14254;50.968;5.366;2023-05-18T14:50:51;23.40;72.60
26623;DHT22;14254;50.968;5.366;2023-05-18T14:53:17;23.50;72.50
26623;DHT22;14254;50.968;5.366;2023-05-18T14:55:42;23.40;73.20
26623;DHT22;14254;50.968;5.366;2023-05-18T14:58:08;23.00;75.00
26623;DHT22;14254;50.968;5.366;2023-05-18T15:00:41;22.00;74.50
26623;DHT22;14254;50.968;5.366;2023-05-18T15:03:07;20.80;76.70
26623;DHT22;14254;50.968;5.366;2023-05-18T15:05:33;20.00;77.60
26623;DHT22;14254;50.968;5.366;2023-05-18T15:07:59;20.50;77.90
26623;DHT22;14254;50.968;5.366;2023-05-18T15:10:24;21.60;77.30
26623;DHT22;14254;50.968;5.366;2023-05-18T15:12:50;21.60;77.50
26623;DHT22;14254;50.968;5.366;2023-05-18T15:15:16;22.10;77.20
26623;DHT22;14254;50.968;5.366;2023-05-18T15:17:42;22.10;77.00
26623;DHT22;14254;50.968;5.366;2023-05-18T15:20:09;22.80;74.90
26623;DHT22;14254;50.968;5.366;2023-05-18T15:22:35;23.80;74.00
26623;DHT22;14254;50.968;5.366;2023-05-18T15:25:02;24.70;72.80
26623;DHT22;14254;50.968;5.366;2023-05-18T15:27:30;25.30;70.30
26623;DHT22;14254;50.968;5.366;2023-05-18T15:29:55;26.10;68.90
26623;DHT22;14254;50.968;5.366;2023-05-18T15:32:21;25.30;69.70
26623;DHT22;14254;50.968;5.366;2023-05-18T15:34:47;24.70;70.80
26623;DHT22;14254;50.968;5.366;2023-05-18T15:37:12;25.30;70.00
26623;DHT22;14254;50.968;5.366;2023-05-18T15:39:38;24.80;69.50
26623;DHT22;14254;50.968;5.366;2023-05-18T15:42:04;23.80;72.00
26623;DHT22;14254;50.968;5.366;2023-05-18T15:44:30;23.70;75.10
26623;DHT22;14254;50.968;5.366;2023-05-18T15:46:56;23.50;72.70
26623;DHT22;14254;50.968;5.366;2023-05-18T15:49:21;24.60;71.50
26623;DHT22;14254;50.968;5.366;2023-05-18T15:51:49;24.30;70.00
26623;DHT22;14254;50.968;5.366;2023-05-18T15:54:16;25.00;70.40